Time;durP1;ratioP1;P1;durP2;ratioP2;P2;SDS_P1;SDS_P2;PMS_P1;PMS_P2;Temp;Humidity;BMP_temperature;BMP_pressure;BME280_temperature;BME280_humidity;BME280_pressure;Samples;Min_cycle;Max_cycle;Signal;HPM_P1;HPM_P2
2024/03/10 00:01:26;;;;;;;20.98;12.27;;;8.70;1.00;;;;;;2602352;54;21028;31
2024/03/10 00:28:33;;;;;;;;;;;8.70;1.00;;;;;;2602189;54;20543;31
2024/03/10 00:38:37;;;;;;;26.52;12.43;;;8.80;1.00;;;;;;2602263;54;20034;31
2024/03/10 00:41:50;;;;;;;20.95;11.07;;;8.80;1.00;;;;;;2602332;54;20803;31
2024/03/10 01:01:45;;;;;;;20.33;11.17;;;8.70;1.00;;;;;;2601423;54;20030;31
2024/03/10 01:14:28;;;;;;;19.05;11.38;;;8.70;1.00;;;;;;2635966;46;20011;-96
2024/03/10 01:33:33;;;;;;;20.80;11.60;;;8.60;1.00;;;;;;2632379;54;20091;-96
2024/03/10 01:36:09;;;;;;;20.65;12.48;;;8.60;1.00;;;;;;2602338;54;20019;31
2024/03/10 01:38:55;;;;;;;26.40;13.20;;;8.60;1.00;;;;;;2603032;54;20857;31
2024/03/10 01:41:40;;;;;;;25.90;13.50;;;8.60;1.00;;;;;;2621685;46;20857;31
2024/03/10 01:44:35;;;;;;;24.02;13.93;;;8.50;1.00;;;;;;2602871;54;20871;31
2024/03/10 01:47:21;;;;;;;25.35;12.90;;;8.50;1.00;;;;;;2602900;54;20569;31
2024/03/10 01:50:12;;;;;;;27.25;14.65;;;8.40;1.00;;;;;;2602813;54;20037;31
2024/03/10 01:56:11;;;;;;;27.83;14.75;;;8.40;1.00;;;;;;2602356;54;20791;31
2024/03/10 01:59:12;;;;;;;23.85;13.20;;;8.40;1.00;;;;;;2602836;54;20904;31
2024/03/10 02:09:37;;;;;;;26.65;14.13;;;8.40;1.00;;;;;;2602551;54;20747;31
2024/03/10 02:47:19;;;;;;;22.45;12.82;;;8.30;1.00;;;;;;2606868;46;20942;31
2024/03/10 02:50:12;;;;;;;21.23;12.13;;;8.30;1.00;;;;;;2602510;54;20022;31
2024/03/10 02:59:00;;;;;;;21.85;12.70;;;8.30;1.00;;;;;;2602222;54;20249;31
2024/03/10 03:02:00;;;;;;;24.63;13.65;;;8.40;1.00;;;;;;2602799;54;20023;31
2024/03/10 03:30:22;;;;;;;;;;;;;;;;;;;;;
2024/03/10 04:49:59;;;;;;;19.30;11.23;;;8.70;1.00;;;;;;2701143;39;20364;31
2024/03/10 04:53:55;;;;;;;;;;;;;;;;;;;;;
2024/03/10 04:59:57;;;;;;;19.30;11.10;;;8.60;1.00;;;;;;2603000;54;20022;31
2024/03/10 05:02:35;;;;;;;20.45;10.32;;;8.70;1.00;;;;;;2602957;54;20226;31
2024/03/10 05:15:07;;;;;;;19.05;10.90;;;8.60;1.00;;;;;;2602983;54;20050;31
2024/03/10 05:17:50;;;;;;;23.83;11.70;;;8.70;1.00;;;;;;2772201;31;20608;31
2024/03/10 05:20:27;;;;;;;23.60;11.93;;;8.60;1.00;;;;;;2603014;54;20039;31
2024/03/10 05:23:03;;;;;;;19.45;11.85;;;8.60;1.00;;;;;;2621596;46;20031;31
2024/03/10 05:25:45;;;;;;;21.73;10.63;;;8.60;1.00;;;;;;2621385;46;20787;31
2024/03/10 05:28:23;;;;;;;18.98;10.40;;;8.70;1.00;;;;;;2602976;54;20893;31
2024/03/10 05:31:03;;;;;;;22.07;12.40;;;8.60;1.00;;;;;;2603017;54;20022;31
2024/03/10 05:33:38;;;;;;;19.77;11.80;;;8.70;1.00;;;;;;2603063;54;20889;31
2024/03/10 05:36:17;;;;;;;19.50;11.45;;;8.60;1.00;;;;;;2602590;54;20034;31
2024/03/10 05:38:57;;;;;;;19.85;11.15;;;8.60;1.00;;;;;;2602752;54;20030;31
2024/03/10 05:41:40;;;;;;;22.58;10.93;;;8.60;1.00;;;;;;2602864;54;20891;31
2024/03/10 05:44:18;;;;;;;21.00;11.50;;;8.70;1.00;;;;;;2621099;46;20813;31
2024/03/10 05:47:04;;;;;;;19.67;11.30;;;8.60;1.00;;;;;;2602918;54;20866;31
2024/03/10 05:50:07;;;;;;;24.15;11.52;;;8.60;1.00;;;;;;2621753;46;20911;31
2024/03/10 05:53:10;;;;;;;19.45;11.10;;;8.60;1.00;;;;;;2602696;54;20081;31
2024/03/10 06:15:16;;;;;;;20.08;10.80;;;8.60;1.00;;;;;;2601723;54;21014;31
2024/03/10 07:22:33;;;;;;;;;;;;;;;;;;;;;
2024/03/10 08:11:42;;;;;;;11.27;6.83;;;10.10;1.00;;;;;;2599618;54;19942;31
2024/03/10 08:28:31;;;;;;;11.52;7.07;;;10.30;99.90;;;;;;2602296;54;20841;31
2024/03/10 08:34:19;;;;;;;12.93;7.32;;;10.30;99.90;;;;;;2601561;54;20022;31
2024/03/10 08:40:19;;;;;;;12.77;7.00;;;10.40;99.90;;;;;;2602175;54;20767;31
2024/03/10 09:24:48;;;;;;;10.13;6.13;;;11.20;99.90;;;;;;2603013;54;20033;31
2024/03/10 09:30:34;;;;;;;12.83;6.57;;;11.20;99.90;;;;;;2603014;54;20849;31
2024/03/10 09:41:48;;;;;;;12.03;6.57;;;11.00;99.90;;;;;;2603140;54;20038;31
2024/03/10 09:44:32;;;;;;;16.20;8.50;;;11.10;99.90;;;;;;2602899;54;20110;31
2024/03/10 09:54:02;;;;;;;16.15;9.90;;;11.10;1.00;;;;;;2621298;46;20042;31
2024/03/10 10:00:23;;;;;;;;;;;;;;;;;;;;;
2024/03/10 10:28:52;;;;;;;16.73;9.52;;;11.00;73.00;;;;;;2926289;46;20034;31
2024/03/10 11:46:04;;;;;;;15.05;9.90;;;12.50;99.90;;;;;;2602112;54;20038;31
2024/03/10 12:38:59;;;;;;;14.93;8.70;;;13.10;37.00;;;;;;2602776;54;21154;31
2024/03/10 12:41:41;;;;;;;16.55;9.13;;;13.10;95.60;;;;;;2602346;54;20030;31
2024/03/10 12:44:31;;;;;;;14.65;8.75;;;13.10;99.90;;;;;;2602627;54;20754;31
2024/03/10 12:56:55;;;;;;;15.70;8.65;;;13.30;99.90;;;;;;2602920;54;20026;31
2024/03/10 12:59:36;;;;;;;17.02;9.05;;;13.30;99.90;;;;;;2603292;54;20022;31
2024/03/10 13:02:12;;;;;;;16.35;8.90;;;13.40;1.00;;;;;;2603348;54;20874;31
2024/03/10 13:04:48;;;;;;;15.25;8.30;;;13.50;1.00;;;;;;2603369;54;20851;31
2024/03/10 13:07:23;;;;;;;14.95;8.75;;;13.60;99.90;;;;;;2603537;54;20894;31
2024/03/10 13:10:07;;;;;;;15.60;9.95;;;13.70;99.90;;;;;;2603359;54;20877;31
2024/03/10 13:12:45;;;;;;;16.85;9.50;;;13.70;99.90;;;;;;2603244;54;20030;31
2024/03/10 13:15:20;;;;;;;15.38;9.55;;;13.80;99.90;;;;;;2621915;46;20033;31
2024/03/10 13:17:56;;;;;;;18.27;9.52;;;13.80;99.90;;;;;;2621803;46;20768;31
2024/03/10 13:20:35;;;;;;;16.30;9.30;;;13.80;99.90;;;;;;2621505;46;20184;31
2024/03/10 13:23:10;;;;;;;14.75;8.85;;;13.80;99.90;;;;;;2603312;54;20858;31
2024/03/10 13:25:50;;;;;;;13.07;8.73;;;13.80;99.90;;;;;;2603301;54;20034;31
2024/03/10 13:28:32;;;;;;;14.80;8.10;;;13.70;99.90;;;;;;2603344;54;20841;31
2024/03/10 13:31:07;;;;;;;15.48;9.25;;;13.70;99.90;;;;;;2621863;46;20894;31
2024/03/10 13:33:50;;;;;;;16.17;9.00;;;13.70;99.90;;;;;;2603343;54;20042;31
2024/03/10 13:36:25;;;;;;;16.35;9.70;;;13.60;99.90;;;;;;2603121;54;20595;31
2024/03/10 13:39:00;;;;;;;19.33;11.13;;;13.60;99.90;;;;;;2603117;54;20030;31
2024/03/10 13:41:35;;;;;;;16.65;9.95;;;13.60;1.00;;;;;;2603149;54;20030;31
2024/03/10 13:44:14;;;;;;;16.80;10.27;;;13.60;12.60;;;;;;2621341;46;20026;31
2024/03/10 13:46:51;;;;;;;16.25;9.57;;;13.50;96.80;;;;;;2603370;54;20810;31
2024/03/10 13:49:26;;;;;;;16.70;9.80;;;13.40;1.00;;;;;;2621649;46;20129;31
2024/03/10 13:52:02;;;;;;;19.10;10.70;;;13.40;99.90;;;;;;2603362;54;20866;31
2024/03/10 13:54:38;;;;;;;16.13;9.82;;;13.40;99.90;;;;;;2621368;46;21000;31
2024/03/10 13:57:13;;;;;;;16.58;9.57;;;13.30;99.90;;;;;;2621453;46;20073;31
2024/03/10 13:59:55;;;;;;;21.87;12.83;;;13.40;99.90;;;;;;2603097;54;20697;31
2024/03/10 14:02:30;;;;;;;16.70;10.05;;;13.30;99.90;;;;;;2603147;54;20930;31
2024/03/10 14:05:05;;;;;;;17.20;11.10;;;13.30;99.90;;;;;;2602710;54;20036;31
2024/03/10 14:07:41;;;;;;;14.43;9.20;;;13.30;99.90;;;;;;2603448;54;20029;31
2024/03/10 14:10:16;;;;;;;11.95;8.20;;;13.30;1.00;;;;;;2621974;46;20128;31
2024/03/10 14:12:54;;;;;;;;;;;13.20;1.00;;;;;;2603248;54;20030;31
2024/03/10 14:15:31;;;;;;;;;;;13.20;99.90;;;;;;2603488;54;19938;31
2024/03/10 14:18:11;;;;;;;15.02;8.02;;;13.10;99.90;;;;;;2603391;54;20025;31
2024/03/10 14:20:47;;;;;;;17.40;7.90;;;13.10;1.00;;;;;;2621675;46;20031;31
2024/03/10 14:23:21;;;;;;;;;;;12.90;99.90;;;;;;2603171;54;20023;31
2024/03/10 14:25:57;;;;;;;12.40;8.35;;;12.90;1.00;;;;;;2602961;54;19934;31
2024/03/10 14:28:34;;;;;;;12.57;8.10;;;12.90;16.70;;;;;;2602966;54;20147;31
2024/03/10 14:31:11;;;;;;;14.68;8.32;;;12.80;99.90;;;;;;2621386;46;20034;31
2024/03/10 14:33:49;;;;;;;13.77;8.00;;;12.80;99.90;;;;;;2602958;54;20831;31
2024/03/10 14:36:24;;;;;;;17.70;8.40;;;12.80;1.00;;;;;;2602997;54;20030;31
2024/03/10 14:38:59;;;;;;;16.17;9.65;;;12.70;1.00;;;;;;2602774;54;20908;31
2024/03/10 14:41:35;;;;;;;13.90;8.80;;;12.60;1.00;;;;;;2603174;54;20925;31
2024/03/10 14:44:11;;;;;;;14.60;8.00;;;12.50;99.90;;;;;;2621846;46;20947;31
2024/03/10 14:46:50;;;;;;;13.60;8.80;;;12.50;99.90;;;;;;2602835;54;20902;31
2024/03/10 14:49:27;;;;;;;15.82;9.18;;;12.40;99.90;;;;;;2602789;54;20034;31
2024/03/10 14:52:04;;;;;;;15.25;8.70;;;12.40;99.90;;;;;;2602836;54;20889;31
2024/03/10 14:54:42;;;;;;;17.17;9.27;;;12.30;99.90;;;;;;2602776;54;20788;31
2024/03/10 14:57:22;;;;;;;13.88;7.95;;;12.30;1.00;;;;;;2602320;54;20094;31
2024/03/10 14:59:59;;;;;;;17.83;10.43;;;12.20;1.00;;;;;;2621631;46;20034;31
2024/03/10 15:02:38;;;;;;;16.40;9.95;;;12.20;1.00;;;;;;2602013;54;20022;31
2024/03/10 15:05:14;;;;;;;15.15;9.55;;;12.20;2.70;;;;;;2621123;46;20109;31
2024/03/10 15:07:49;;;;;;;15.03;10.30;;;12.10;66.10;;;;;;2602879;54;20102;31
2024/03/10 15:10:24;;;;;;;15.57;8.57;;;12.10;99.90;;;;;;2602695;54;20255;31
2024/03/10 15:12:59;;;;;;;15.60;9.67;;;12.10;99.90;;;;;;2603001;54;20053;31
2024/03/10 15:15:36;;;;;;;16.27;9.47;;;12.10;99.90;;;;;;2602479;54;20878;31
2024/03/10 15:18:13;;;;;;;21.40;10.90;;;12.00;99.90;;;;;;2602712;54;20031;31
2024/03/10 15:20:49;;;;;;;17.95;9.85;;;12.00;99.90;;;;;;2620964;46;20869;31
2024/03/10 15:23:24;;;;;;;19.00;10.52;;;11.90;99.90;;;;;;2602799;54;20745;31
2024/03/10 15:26:04;;;;;;;16.30;9.80;;;11.90;99.90;;;;;;2602688;54;20992;31
2024/03/10 15:28:41;;;;;;;17.35;10.00;;;11.90;99.90;;;;;;2602599;54;20031;31
2024/03/10 15:31:16;;;;;;;20.25;9.68;;;11.90;99.90;;;;;;2719930;39;20399;31
2024/03/10 15:33:55;;;;;;;16.20;9.80;;;11.90;99.90;;;;;;2602899;54;21449;31
2024/03/10 15:36:43;;;;;;;15.55;9.32;;;11.90;99.90;;;;;;2700979;39;20414;31
2024/03/10 15:39:24;;;;;;;21.33;11.00;;;11.80;99.90;;;;;;2602363;54;20874;31
2024/03/10 15:41:59;;;;;;;16.80;10.40;;;11.80;99.90;;;;;;2602671;54;20905;31
2024/03/10 15:44:35;;;;;;;18.40;9.95;;;11.80;99.90;;;;;;2602709;54;20970;31
2024/03/10 15:47:18;;;;;;;13.95;8.85;;;11.70;99.90;;;;;;2602596;54;20053;31
2024/03/10 15:49:58;;;;;;;17.15;9.95;;;11.70;99.90;;;;;;2701059;39;20447;31
2024/03/10 15:55:08;;;;;;;17.90;10.07;;;11.70;99.90;;;;;;2621093;46;20906;31
2024/03/10 15:57:43;;;;;;;17.33;9.93;;;11.70;99.90;;;;;;2602431;54;20081;31
2024/03/10 16:00:20;;;;;;;18.83;10.40;;;11.70;1.00;;;;;;2602666;54;20902;31
2024/03/10 16:02:57;;;;;;;18.67;10.90;;;11.60;1.00;;;;;;2621192;46;20072;31
2024/03/10 16:05:39;;;;;;;18.90;9.95;;;11.70;1.00;;;;;;2602416;54;20876;31
2024/03/10 16:08:14;;;;;;;18.55;10.25;;;11.60;1.00;;;;;;2701024;39;20481;31
2024/03/10 16:10:59;;;;;;;20.33;10.70;;;11.50;1.00;;;;;;2602422;54;20031;31
2024/03/10 16:13:39;;;;;;;17.75;10.50;;;11.60;1.00;;;;;;2602666;54;20892;31
2024/03/10 16:16:15;;;;;;;15.40;10.55;;;11.60;1.00;;;;;;2602537;54;20880;31
2024/03/10 16:18:54;;;;;;;19.20;11.50;;;11.60;1.00;;;;;;2602662;54;20847;31
2024/03/10 16:21:36;;;;;;;18.03;10.90;;;11.60;1.00;;;;;;2602666;54;20077;31
2024/03/10 16:24:13;;;;;;;19.08;10.77;;;11.50;1.00;;;;;;2602443;54;20037;31
2024/03/10 16:26:48;;;;;;;20.43;11.17;;;11.50;1.00;;;;;;2602642;54;20030;31
2024/03/10 16:29:23;;;;;;;20.80;11.10;;;11.60;1.00;;;;;;2603213;54;20157;31
2024/03/10 16:32:00;;;;;;;18.33;11.13;;;11.50;1.00;;;;;;2603369;54;20042;31
2024/03/10 16:34:35;;;;;;;20.10;11.32;;;11.50;1.00;;;;;;2603385;54;20890;31
2024/03/10 16:37:13;;;;;;;20.05;10.85;;;11.60;1.00;;;;;;2603333;54;20866;31
2024/03/10 16:39:48;;;;;;;20.52;11.27;;;11.60;1.00;;;;;;2603418;54;20049;31
2024/03/10 16:42:23;;;;;;;20.70;11.10;;;11.60;1.00;;;;;;2603171;54;20105;31
2024/03/10 16:44:57;;;;;;;18.70;11.50;;;11.60;1.00;;;;;;2603286;54;21217;31
2024/03/10 16:47:31;;;;;;;17.92;10.52;;;11.60;1.00;;;;;;2621647;46;20037;31
2024/03/10 16:50:08;;;;;;;17.43;10.13;;;11.60;1.00;;;;;;2621646;46;20037;31
2024/03/10 16:52:47;;;;;;;17.90;10.35;;;11.60;1.00;;;;;;2621959;46;20851;31
2024/03/10 16:55:23;;;;;;;17.50;10.95;;;11.60;1.00;;;;;;2621617;46;20030;31
2024/03/10 16:57:59;;;;;;;21.02;11.77;;;11.60;1.00;;;;;;2621848;46;20034;31
2024/03/10 17:03:11;;;;;;;18.30;10.80;;;11.60;1.00;;;;;;2603360;54;20785;31
2024/03/10 17:05:53;;;;;;;21.38;11.50;;;11.50;1.00;;;;;;2603097;54;20933;31
2024/03/10 17:08:33;;;;;;;31.67;15.10;;;11.60;1.00;;;;;;2603127;54;20042;31
2024/03/10 17:11:09;;;;;;;50.25;21.75;;;11.60;1.00;;;;;;2603219;54;20030;31
2024/03/10 17:13:44;;;;;;;27.40;13.90;;;11.60;1.00;;;;;;2603155;54;20053;31
2024/03/10 17:16:20;;;;;;;41.47;18.47;;;11.60;1.00;;;;;;2603033;54;20800;31
2024/03/10 17:18:55;;;;;;;21.90;11.25;;;11.60;1.00;;;;;;2621550;46;20109;31
2024/03/10 17:21:33;;;;;;;24.35;17.25;;;11.60;1.00;;;;;;2621460;46;20026;31
2024/03/10 17:24:07;;;;;;;20.55;14.23;;;11.60;1.00;;;;;;2603352;54;20033;31
2024/03/10 17:26:44;;;;;;;29.30;18.30;;;11.70;1.00;;;;;;2603077;54;20030;31
2024/03/10 17:29:20;;;;;;;30.40;17.65;;;11.70;1.00;;;;;;2603003;54;20747;31
2024/03/10 17:31:56;;;;;;;28.45;16.00;;;11.70;1.00;;;;;;2603132;54;20938;31
2024/03/10 17:34:31;;;;;;;20.30;11.67;;;11.70;1.00;;;;;;2602439;54;20037;31
2024/03/10 17:37:10;;;;;;;19.27;11.33;;;11.70;1.00;;;;;;2603091;54;20097;31
2024/03/10 17:39:44;;;;;;;59.53;35.42;;;11.70;1.00;;;;;;2621261;46;20801;31
2024/03/10 17:42:22;;;;;;;29.85;20.00;;;11.70;1.00;;;;;;2603216;54;20057;31
2024/03/10 17:44:57;;;;;;;26.95;16.40;;;11.70;1.00;;;;;;2602955;54;20751;31
2024/03/10 17:47:33;;;;;;;23.40;16.60;;;11.70;1.00;;;;;;2603138;54;20086;31
2024/03/10 17:50:11;;;;;;;17.60;10.05;;;11.70;1.00;;;;;;2701405;39;21336;31
2024/03/10 17:52:48;;;;;;;17.35;9.65;;;11.70;1.00;;;;;;2621553;46;20057;31
2024/03/10 17:55:23;;;;;;;22.13;11.57;;;11.70;1.00;;;;;;2602992;54;20073;31
2024/03/10 17:58:00;;;;;;;20.80;9.67;;;11.70;1.00;;;;;;2602947;54;20140;31
2024/03/10 18:00:36;;;;;;;15.75;8.93;;;11.70;1.00;;;;;;2602879;54;20034;31
2024/03/10 18:03:13;;;;;;;15.65;9.00;;;11.70;1.00;;;;;;2602998;54;20030;31
2024/03/10 18:05:48;;;;;;;22.33;9.80;;;11.70;1.00;;;;;;2603139;54;20941;31
2024/03/10 18:08:23;;;;;;;16.08;9.13;;;11.70;1.00;;;;;;2602951;54;20929;31
2024/03/10 18:10:57;;;;;;;15.45;9.52;;;11.60;1.00;;;;;;2621319;46;21240;31
2024/03/10 18:13:34;;;;;;;17.15;9.98;;;11.60;1.00;;;;;;2602965;54;20154;31
2024/03/10 18:16:10;;;;;;;18.15;9.90;;;11.60;1.00;;;;;;2602935;54;20862;31
2024/03/10 18:18:45;;;;;;;15.57;9.30;;;11.60;1.00;;;;;;2602910;54;20038;31
2024/03/10 18:21:18;;;;;;;16.13;9.73;;;11.60;1.00;;;;;;2603151;54;22321;31
2024/03/10 18:23:53;;;;;;;14.60;9.57;;;11.60;1.00;;;;;;2621521;46;20924;31
2024/03/10 18:26:32;;;;;;;18.98;10.60;;;11.60;1.00;;;;;;2602993;54;20030;31
2024/03/10 18:29:11;;;;;;;19.52;10.45;;;11.60;1.00;;;;;;2602924;54;20030;31
2024/03/10 18:34:24;;;;;;;19.05;9.27;;;11.60;1.00;;;;;;2602774;54;20735;31
2024/03/10 18:37:01;;;;;;;14.70;8.40;;;11.60;1.00;;;;;;2621433;46;20036;31
2024/03/10 18:39:41;;;;;;;16.40;8.93;;;11.60;1.00;;;;;;2603044;54;20062;31
2024/03/10 18:42:16;;;;;;;19.05;12.60;;;11.60;1.00;;;;;;2602749;54;20922;31
2024/03/10 19:02:58;;;;;;;14.48;8.23;;;11.40;1.00;;;;;;2601988;54;20078;31
2024/03/10 19:14:57;;;;;;;14.45;8.70;;;11.40;1.00;;;;;;2602852;54;20859;31
2024/03/10 19:17:37;;;;;;;14.60;8.27;;;11.30;1.00;;;;;;2620960;46;20144;31
2024/03/10 19:23:27;;;;;;;15.45;9.07;;;11.30;1.00;;;;;;2602744;54;20227;31
2024/03/10 19:26:14;;;;;;;17.05;10.20;;;11.30;1.00;;;;;;2602432;54;20742;31
2024/03/10 19:29:01;;;;;;;17.73;9.90;;;11.30;1.00;;;;;;2602791;54;20781;31
2024/03/10 19:34:57;;;;;;;23.60;12.35;;;11.30;1.00;;;;;;2602750;54;21085;31
2024/03/10 19:50:49;;;;;;;14.45;8.50;;;11.20;14.20;;;;;;2601865;54;20042;31
2024/03/10 20:34:38;;;;;;;17.95;9.00;;;10.90;44.70;;;;;;2599666;54;20966;31
2024/03/10 20:37:28;;;;;;;18.50;9.30;;;10.80;48.40;;;;;;2602321;54;20845;31
2024/03/10 20:42:48;;;;;;;15.07;8.87;;;10.70;56.00;;;;;;2602385;54;20880;31
2024/03/10 20:49:47;;;;;;;;;;;;;;;;;;;;;
2024/03/10 20:53:52;;;;;;;;;;;;;;;;;;;;;
2024/03/10 21:10:14;;;;;;;;;;;;;;;;;;;;;
2024/03/10 21:13:48;;;;;;;;;;;;;;;;;;;;;
2024/03/10 21:16:47;;;;;;;16.30;9.70;;;10.20;95.70;;;;;;2603129;54;20057;31
2024/03/10 21:23:00;;;;;;;15.52;10.88;;;10.00;99.00;;;;;;2603207;54;20479;31
2024/03/10 21:38:24;;;;;;;18.25;12.40;;;9.80;99.90;;;;;;2601801;54;20923;31
2024/03/10 21:41:38;;;;;;;17.52;10.60;;;9.70;99.90;;;;;;2602820;54;20038;31
2024/03/10 21:44:53;;;;;;;16.13;10.17;;;9.70;99.90;;;;;;2602985;54;20888;31
2024/03/10 21:47:51;;;;;;;17.40;9.77;;;9.60;99.90;;;;;;2621407;46;20892;31
2024/03/10 21:53:41;;;;;;;17.25;9.98;;;9.50;99.90;;;;;;2621415;46;20096;31
2024/03/10 21:59:12;;;;;;;18.17;11.20;;;9.40;99.90;;;;;;2603039;54;21858;31
2024/03/10 22:02:17;;;;;;;18.48;10.00;;;9.40;99.90;;;;;;2602755;54;20881;31
2024/03/10 22:05:16;;;;;;;17.35;10.32;;;9.40;99.90;;;;;;2621524;46;21154;31
2024/03/10 22:08:00;;;;;;;17.98;9.65;;;9.30;99.90;;;;;;2602935;54;20027;31
2024/03/10 22:13:37;;;;;;;17.95;10.48;;;9.20;99.90;;;;;;2621318;46;20065;31
2024/03/10 22:53:53;;;;;;;15.48;9.68;;;9.20;99.90;;;;;;2602992;54;20026;31
2024/03/10 23:25:38;;;;;;;18.23;9.60;;;9.20;99.90;;;;;;2684281;39;21355;31
2024/03/10 23:35:36;;;;;;;;;;;;;;;;;;;;;
2024/03/10 23:38:27;;;;;;;15.82;9.98;;;9.30;99.90;;;;;;2620556;46;20101;31
2024/03/10 23:41:04;;;;;;;18.88;11.02;;;9.20;99.90;;;;;;2602424;54;20872;31
2024/03/10 23:43:40;;;;;;;13.33;9.03;;;9.20;99.90;;;;;;2602286;54;20109;31
2024/03/10 23:46:15;;;;;;;16.85;10.50;;;9.20;99.90;;;;;;2620369;46;20023;31
2024/03/10 23:48:51;;;;;;;16.73;10.25;;;9.20;99.90;;;;;;2602278;54;20885;31
2024/03/10 23:51:29;;;;;;;19.05;9.85;;;9.20;99.90;;;;;;2620670;46;20888;31
2024/03/10 23:54:05;;;;;;;15.05;9.80;;;9.30;99.90;;;;;;2602237;54;20913;31
2024/03/10 23:56:40;;;;;;;19.80;9.65;;;9.30;99.90;;;;;;2602232;54;20898;31
2024/03/10 23:59:16;;;;;;;15.75;8.90;;;9.30;99.90;;;;;;2620620;46;20904;31
